createdAt,value
2022-12-05T00:01:59.241Z,16.67
2022-12-05T00:04:26.875Z,22.17
2022-12-05T00:06:54.464Z,21.20
2022-12-05T00:09:21.942Z,15.10
2022-12-05T00:11:50.250Z,20.02
2022-12-05T00:14:19.210Z,15.23
2022-12-05T00:16:46.788Z,20.73
2022-12-05T00:19:15.552Z,17.95
2022-12-05T00:21:43.739Z,19.17
2022-12-05T00:24:13.455Z,20.73
2022-12-05T00:26:41.104Z,21.80
2022-12-05T00:29:08.640Z,24.20
2022-12-05T00:31:37.630Z,20.47
2022-12-05T00:34:05.392Z,20.67
2022-12-05T00:36:36.891Z,22.83
2022-12-05T00:39:06.406Z,16.40
2022-12-05T00:41:34.006Z,19.40
2022-12-05T00:44:02.519Z,18.80
2022-12-05T00:46:31.862Z,20.33
2022-12-05T00:49:01.598Z,21.83
2022-12-05T00:51:31.184Z,18.57
2022-12-05T00:53:59.618Z,20.50
2022-12-05T00:56:28.527Z,16.77
2022-12-05T00:58:57.164Z,20.80
2022-12-05T01:01:26.493Z,16.67
2022-12-05T01:03:55.530Z,15.33
2022-12-05T01:06:25.276Z,18.67
2022-12-05T01:08:54.301Z,20.80
2022-12-05T01:11:23.115Z,19.07
2022-12-05T01:13:50.897Z,15.03
2022-12-05T01:16:20.429Z,20.10
2022-12-05T01:18:48.112Z,17.13
2022-12-05T01:21:15.752Z,17.42
2022-12-05T01:23:44.711Z,20.77
2022-12-05T01:26:14.601Z,20.10
2022-12-05T01:28:42.459Z,19.00
2022-12-05T01:31:11.772Z,16.08
2022-12-05T01:33:39.463Z,20.13
2022-12-05T01:36:11.579Z,18.00
2022-12-05T01:38:39.890Z,20.55
2022-12-05T01:41:11.664Z,19.25
2022-12-05T01:43:55.071Z,19.80
2022-12-05T01:46:22.741Z,20.90
2022-12-05T01:48:50.705Z,18.15
2022-12-05T01:51:18.827Z,18.07
2022-12-05T01:53:46.752Z,20.45
2022-12-05T01:56:15.763Z,15.57
2022-12-05T01:58:43.704Z,18.13
2022-12-05T02:01:12.619Z,17.30
2022-12-05T02:03:41.824Z,22.10
2022-12-05T02:06:10.587Z,18.50
2022-12-05T02:08:38.673Z,18.00
2022-12-05T02:11:08.303Z,19.90
2022-12-05T02:13:46.602Z,23.05
2022-12-05T02:16:20.111Z,20.70
2022-12-05T02:18:55.405Z,20.90
2022-12-05T02:21:52.639Z,19.27
2022-12-05T02:24:41.011Z,20.13
2022-12-05T02:27:21.358Z,20.97
2022-12-05T02:30:09.485Z,22.33
2022-12-05T02:32:48.046Z,17.70
2022-12-05T02:35:22.775Z,18.50
2022-12-05T02:37:55.626Z,19.73
2022-12-05T02:40:25.598Z,21.07
2022-12-05T02:42:58.728Z,21.92
2022-12-05T02:45:29.622Z,17.57
2022-12-05T02:47:57.862Z,18.40
2022-12-05T02:50:27.139Z,20.63
2022-12-05T02:52:55.817Z,21.43
2022-12-05T02:55:24.320Z,20.10
2022-12-05T02:57:54.056Z,22.38
2022-12-05T03:00:21.791Z,20.03
2022-12-05T03:02:53.598Z,22.60
2022-12-05T03:05:24.381Z,18.43
2022-12-05T03:07:53.274Z,24.45
2022-12-05T03:10:23.424Z,17.90
2022-12-05T03:12:52.826Z,19.83
2022-12-05T03:15:24.500Z,22.50
2022-12-05T03:17:56.383Z,19.77
2022-12-05T03:20:28.690Z,24.00
2022-12-05T03:22:58.912Z,26.63
2022-12-05T03:25:31.329Z,21.25
2022-12-05T03:28:05.134Z,18.70
2022-12-05T03:30:35.974Z,22.40
2022-12-05T03:33:09.064Z,21.10
2022-12-05T03:35:38.456Z,20.03
2022-12-05T03:38:10.431Z,21.45
2022-12-05T03:40:41.803Z,33.17
2022-12-05T03:43:11.762Z,20.20
2022-12-05T03:45:45.197Z,22.25
2022-12-05T03:48:17.516Z,18.30
2022-12-05T03:50:47.655Z,25.10
2022-12-05T03:53:19.929Z,22.08
2022-12-05T03:55:50.433Z,23.25
2022-12-05T03:58:25.071Z,22.00
2022-12-05T04:00:54.051Z,23.13
2022-12-05T04:03:26.254Z,23.40
2022-12-05T04:05:56.342Z,27.63
2022-12-05T04:08:27.216Z,27.40
2022-12-05T04:10:56.798Z,24.93
2022-12-05T04:13:28.683Z,23.13
2022-12-05T04:16:16.758Z,22.57
2022-12-05T04:18:50.681Z,20.70
2022-12-05T04:21:36.970Z,24.40
2022-12-05T04:24:25.018Z,26.73
2022-12-05T04:26:56.933Z,27.33
2022-12-05T04:29:28.236Z,20.90
2022-12-05T04:31:59.669Z,23.10
2022-12-05T04:34:29.375Z,24.07
2022-12-05T04:37:00.727Z,27.42
2022-12-05T04:39:32.302Z,24.10
2022-12-05T04:42:01.724Z,27.17
2022-12-05T04:44:32.026Z,20.43
2022-12-05T04:47:02.784Z,20.97
2022-12-05T04:49:34.728Z,20.67
2022-12-05T04:52:03.879Z,25.77
2022-12-05T04:54:33.227Z,24.57
2022-12-05T04:57:08.136Z,25.35
2022-12-05T04:59:35.975Z,26.20
2022-12-05T05:02:08.062Z,24.80
2022-12-05T05:04:39.138Z,24.40
2022-12-05T05:07:08.289Z,24.73
2022-12-05T05:09:36.112Z,30.93
2022-12-05T05:12:03.728Z,24.77
2022-12-05T05:14:31.298Z,32.23
2022-12-05T05:16:59.023Z,24.60
2022-12-05T05:19:26.598Z,24.10
2022-12-05T05:21:55.440Z,21.90
2022-12-05T05:24:23.487Z,28.00
2022-12-05T05:26:56.969Z,28.17
2022-12-05T05:29:24.984Z,30.23
2022-12-05T05:31:52.553Z,29.03
2022-12-05T05:34:20.060Z,25.55
2022-12-05T05:36:52.466Z,24.47
2022-12-05T05:39:21.400Z,27.43
2022-12-05T05:41:48.910Z,23.77
2022-12-05T05:44:16.395Z,25.87
2022-12-05T05:46:43.981Z,25.00
2022-12-05T05:49:11.718Z,24.97
2022-12-05T05:51:39.240Z,27.90
2022-12-05T05:54:06.755Z,27.63
2022-12-05T05:56:35.628Z,32.97
2022-12-05T05:59:04.236Z,32.63
2022-12-05T06:01:31.905Z,30.30
2022-12-05T06:03:59.629Z,24.77
2022-12-05T06:06:27.556Z,26.50
2022-12-05T06:08:55.624Z,29.30
2022-12-05T06:11:26.773Z,32.70
2022-12-05T06:13:56.370Z,29.60
2022-12-05T06:16:24.057Z,29.43
2022-12-05T06:18:52.546Z,30.37
2022-12-05T06:21:20.498Z,31.80
2022-12-05T06:23:48.372Z,36.00
2022-12-05T06:26:17.596Z,36.08
2022-12-05T06:28:45.417Z,23.23
2022-12-05T06:31:15.565Z,29.33
2022-12-05T06:33:43.100Z,33.70
2022-12-05T06:36:12.989Z,29.87
2022-12-05T06:38:42.439Z,29.27
2022-12-05T06:41:11.720Z,38.90
2022-12-05T06:43:39.261Z,34.00
2022-12-05T06:46:07.659Z,36.30
2022-12-05T06:48:36.752Z,29.57
2022-12-05T06:51:06.847Z,26.60
2022-12-05T06:53:34.416Z,38.55
2022-12-05T06:56:03.472Z,33.50
2022-12-05T06:58:30.973Z,33.63
2022-12-05T07:01:16.090Z,37.53
2022-12-05T07:03:45.058Z,33.63
2022-12-05T07:06:12.595Z,29.50
2022-12-05T07:08:41.373Z,30.55
2022-12-05T07:11:09.343Z,27.60
2022-12-05T07:13:36.867Z,30.83
2022-12-05T07:16:07.036Z,30.13
2022-12-05T07:18:35.044Z,33.43
2022-12-05T07:21:13.825Z,30.73
2022-12-05T07:23:42.151Z,30.95
2022-12-05T07:26:11.268Z,30.80
2022-12-05T07:28:38.864Z,31.60
2022-12-05T07:31:08.177Z,31.87
2022-12-05T07:33:36.378Z,30.70
2022-12-05T07:36:07.205Z,33.30
2022-12-05T07:38:34.733Z,28.33
2022-12-05T07:41:10.213Z,32.17
2022-12-05T07:43:40.746Z,34.13
2022-12-05T07:46:09.563Z,31.77
2022-12-05T07:48:37.381Z,32.10
2022-12-05T07:51:09.933Z,30.23
2022-12-05T07:53:38.437Z,28.03
2022-12-05T07:56:07.798Z,35.17
2022-12-05T07:58:36.040Z,30.73
2022-12-05T08:01:07.358Z,37.50
2022-12-05T08:03:35.213Z,34.03
2022-12-05T08:06:04.448Z,36.60
2022-12-05T08:08:33.558Z,29.70
2022-12-05T08:11:04.677Z,30.67
2022-12-05T08:13:32.387Z,32.53
2022-12-05T08:16:02.982Z,32.30
2022-12-05T08:18:30.690Z,30.23
2022-12-05T08:21:02.858Z,34.63
2022-12-05T08:23:31.682Z,36.47
2022-12-05T08:26:04.031Z,39.50
2022-12-05T08:28:31.883Z,31.07
2022-12-05T08:31:16.499Z,36.87
2022-12-05T08:33:44.697Z,30.90
2022-12-05T08:36:15.334Z,35.43
2022-12-05T08:38:43.628Z,36.53
2022-12-05T08:41:14.349Z,39.00
2022-12-05T08:43:42.583Z,29.83
2022-12-05T08:46:10.453Z,34.33
2022-12-05T08:48:38.364Z,34.67
2022-12-05T08:51:08.289Z,41.67
2022-12-05T08:53:40.935Z,40.23
2022-12-05T08:56:11.993Z,40.53
2022-12-05T08:58:40.350Z,27.53
2022-12-05T09:01:09.666Z,31.60
2022-12-05T09:03:37.427Z,42.27
2022-12-05T09:06:09.581Z,33.17
2022-12-05T09:08:37.676Z,41.33
2022-12-05T09:11:08.629Z,41.10
2022-12-05T09:13:37.491Z,38.33
2022-12-05T09:16:08.956Z,35.83
2022-12-05T09:18:36.643Z,35.83
2022-12-05T09:21:07.691Z,35.77
2022-12-05T09:23:35.233Z,34.40
2022-12-05T09:26:02.994Z,40.87
2022-12-05T09:28:31.134Z,40.67
2022-12-05T09:31:01.765Z,39.00
2022-12-05T09:33:30.487Z,29.23
2022-12-05T09:35:58.513Z,42.10
2022-12-05T09:38:26.388Z,33.20
2022-12-05T09:41:01.745Z,44.10
2022-12-05T09:43:35.887Z,37.53
2022-12-05T09:46:13.659Z,35.97
2022-12-05T09:48:41.515Z,34.90
2022-12-05T09:51:10.700Z,34.63
2022-12-05T09:53:40.211Z,31.40
2022-12-05T09:56:14.908Z,36.37
2022-12-05T09:58:44.455Z,43.10
2022-12-05T10:01:29.555Z,30.30
2022-12-05T10:04:12.175Z,29.60
2022-12-05T10:06:42.768Z,30.40
2022-12-05T10:09:24.367Z,30.73
2022-12-05T10:11:57.756Z,29.47
2022-12-05T10:14:33.619Z,32.73
2022-12-05T10:17:08.579Z,28.07
2022-12-05T10:19:45.531Z,34.10
2022-12-05T10:22:20.459Z,30.97
2022-12-05T10:24:51.967Z,30.53
2022-12-05T10:27:27.207Z,29.57
2022-12-05T10:29:59.110Z,28.87
2022-12-05T10:32:33.596Z,30.23
2022-12-05T10:35:10.363Z,32.13
2022-12-05T10:37:39.373Z,25.97
2022-12-05T10:40:14.049Z,27.00
2022-12-05T10:42:41.828Z,34.20
2022-12-05T10:45:15.146Z,29.23
2022-12-05T10:47:45.473Z,29.83
2022-12-05T10:50:25.777Z,28.37
2022-12-05T10:52:54.757Z,32.30
2022-12-05T10:55:22.823Z,26.37
2022-12-05T10:57:52.411Z,26.17
2022-12-05T11:00:25.254Z,25.73
2022-12-05T11:02:55.227Z,26.40
2022-12-05T11:05:30.741Z,27.23
2022-12-05T11:08:00.060Z,28.93
2022-12-05T11:10:29.239Z,26.47
2022-12-05T11:12:57.826Z,26.90
2022-12-05T11:15:28.056Z,22.60
2022-12-05T11:17:59.077Z,26.93
2022-12-05T11:20:40.628Z,20.40
2022-12-05T11:23:22.125Z,26.80
2022-12-05T11:25:50.000Z,23.27
2022-12-05T11:28:29.403Z,24.87
2022-12-05T11:30:59.382Z,24.03
2022-12-05T11:33:29.079Z,20.43
2022-12-05T11:36:00.265Z,20.87
2022-12-05T11:38:32.229Z,21.70
2022-12-05T11:41:09.285Z,17.10
2022-12-05T11:44:13.423Z,18.08
2022-12-05T11:46:49.136Z,19.77
2022-12-05T11:49:29.379Z,16.70
2022-12-05T11:52:05.079Z,13.67
2022-12-05T11:55:06.269Z,16.13
2022-12-05T11:57:45.065Z,20.13
2022-12-05T12:00:22.423Z,17.70
2022-12-05T12:03:12.969Z,18.40
2022-12-05T12:05:46.075Z,19.30
2022-12-05T12:08:21.199Z,20.43
2022-12-05T12:10:56.516Z,18.40
2022-12-05T12:13:36.709Z,18.87
2022-12-05T12:16:11.480Z,16.00
2022-12-05T12:18:50.588Z,17.80
2022-12-05T12:21:20.696Z,18.17
2022-12-05T12:23:59.723Z,19.93
2022-12-05T12:26:36.577Z,17.33
2022-12-05T12:29:11.658Z,16.30
2022-12-05T12:31:55.336Z,17.20
2022-12-05T12:34:38.939Z,19.53
2022-12-05T12:37:15.067Z,17.00
2022-12-05T12:39:49.035Z,19.30
2022-12-05T12:42:23.012Z,18.07
2022-12-05T12:45:13.450Z,17.80
2022-12-05T12:47:48.448Z,17.83
2022-12-05T12:50:19.913Z,19.30
2022-12-05T12:53:12.849Z,16.70
2022-12-05T12:55:43.644Z,18.43
2022-12-05T12:58:21.986Z,18.43
2022-12-05T13:00:59.883Z,18.67
2022-12-05T13:03:32.030Z,15.60
2022-12-05T13:06:02.353Z,19.13
2022-12-05T13:08:35.880Z,17.57
2022-12-05T13:11:06.883Z,19.87
2022-12-05T13:13:38.308Z,24.80
2022-12-05T13:16:08.685Z,22.97
2022-12-05T13:18:36.537Z,19.30
2022-12-05T13:21:07.159Z,19.13
2022-12-05T13:23:42.179Z,20.03
2022-12-05T13:26:11.700Z,19.13
2022-12-05T13:28:42.119Z,24.37
2022-12-05T13:31:10.292Z,26.27
2022-12-05T13:33:43.915Z,20.23
2022-12-05T13:36:30.408Z,17.90
2022-12-05T13:39:18.491Z,24.73
2022-12-05T13:42:04.788Z,22.03
2022-12-05T13:44:37.596Z,23.03
2022-12-05T13:47:07.293Z,26.07
2022-12-05T13:49:43.520Z,35.27
2022-12-05T13:52:14.506Z,23.63
2022-12-05T13:54:45.848Z,26.93
2022-12-05T13:57:45.751Z,26.03
2022-12-05T14:00:31.939Z,24.50
2022-12-05T14:03:05.461Z,23.90
2022-12-05T14:05:44.455Z,23.53
2022-12-05T14:08:48.761Z,23.40
2022-12-05T14:11:18.027Z,28.73
2022-12-05T14:13:46.140Z,27.67
2022-12-05T14:16:46.909Z,19.10
2022-12-05T14:19:50.460Z,22.80
2022-12-05T14:22:39.004Z,22.63
2022-12-05T14:25:13.713Z,21.37
2022-12-05T14:27:47.985Z,22.03
2022-12-05T14:30:22.599Z,21.87
2022-12-05T14:32:51.723Z,25.90
2022-12-05T14:35:30.095Z,22.60
2022-12-05T14:37:58.738Z,24.30
2022-12-05T14:40:32.259Z,22.50
2022-12-05T14:43:03.730Z,20.20
2022-12-05T14:45:34.452Z,22.13
2022-12-05T14:48:03.143Z,23.80
2022-12-05T14:50:41.165Z,27.00
2022-12-05T14:53:37.799Z,18.17
2022-12-05T14:56:19.928Z,21.67
2022-12-05T14:58:51.879Z,22.03
2022-12-05T15:01:22.529Z,25.40
2022-12-05T15:04:06.769Z,23.83
2022-12-05T15:06:36.547Z,20.87
2022-12-05T15:09:35.995Z,20.83
2022-12-05T15:11:57.122Z,24.70
2022-12-05T15:14:31.300Z,25.23
2022-12-05T15:17:00.807Z,26.67
2022-12-05T15:19:30.886Z,22.20
2022-12-05T15:22:01.422Z,23.20
2022-12-05T15:24:29.016Z,23.50
2022-12-05T15:26:57.934Z,23.07
2022-12-05T15:29:29.090Z,24.67
2022-12-05T15:32:02.117Z,23.63
2022-12-05T15:34:31.596Z,26.30
2022-12-05T15:37:03.810Z,24.90
2022-12-05T15:39:51.466Z,22.10
2022-12-05T15:42:18.967Z,21.23
2022-12-05T15:44:47.823Z,26.90
2022-12-05T15:47:21.151Z,19.70
2022-12-05T15:49:48.836Z,25.70
2022-12-05T15:55:22.631Z,22.40
2022-12-05T15:58:12.825Z,20.07
2022-12-05T16:00:46.411Z,27.90
2022-12-05T16:03:17.089Z,31.00
2022-12-05T16:05:50.359Z,29.93
2022-12-05T16:08:18.345Z,24.77
2022-12-05T16:10:48.126Z,21.83
2022-12-05T16:13:16.863Z,28.53
2022-12-05T16:15:52.612Z,25.10
2022-12-05T16:18:27.502Z,31.40
2022-12-05T16:20:55.661Z,23.57
2022-12-05T16:23:26.683Z,30.37
2022-12-05T16:25:54.577Z,30.70
2022-12-05T16:28:24.173Z,25.03
2022-12-05T16:30:58.335Z,29.13
2022-12-05T16:33:26.878Z,25.53
2022-12-05T16:35:54.764Z,25.50
2022-12-05T16:38:25.658Z,29.97
2022-12-05T16:40:58.598Z,32.23
2022-12-05T16:43:29.151Z,31.67
2022-12-05T16:46:01.052Z,27.03
2022-12-05T16:48:30.220Z,26.83
2022-12-05T16:51:17.562Z,31.57
2022-12-05T16:53:48.661Z,33.60
2022-12-05T16:56:18.011Z,26.17
2022-12-05T16:58:45.960Z,26.20
2022-12-05T17:01:20.942Z,30.90
2022-12-05T17:03:48.947Z,27.93
2022-12-05T17:06:19.192Z,31.70
2022-12-05T17:08:46.840Z,29.20
2022-12-05T17:11:19.515Z,29.20
2022-12-05T17:13:48.549Z,29.13
2022-12-05T17:16:21.626Z,26.40
2022-12-05T17:19:28.530Z,32.30
2022-12-05T17:21:54.347Z,28.10
2022-12-05T17:24:22.240Z,25.73
2022-12-05T17:26:49.921Z,30.30
2022-12-05T17:29:17.596Z,25.27
2022-12-05T17:31:46.755Z,28.07
2022-12-05T17:34:18.542Z,31.13
2022-12-05T17:36:46.558Z,30.13
2022-12-05T17:39:14.568Z,31.23
2022-12-05T17:41:42.292Z,33.63
2022-12-05T17:44:16.018Z,32.17
2022-12-05T17:46:57.080Z,30.43
2022-12-05T17:49:26.181Z,28.30
2022-12-05T17:52:24.656Z,29.00
2022-12-05T17:54:42.368Z,28.80
2022-12-05T17:57:10.046Z,28.10
2022-12-05T17:59:38.164Z,26.80
2022-12-05T18:02:07.567Z,26.23
2022-12-05T18:04:35.275Z,25.93
2022-12-05T18:07:03.118Z,22.97
2022-12-05T18:09:31.055Z,24.40
2022-12-05T18:11:58.686Z,20.20
2022-12-05T18:14:28.367Z,23.10
2022-12-05T18:16:56.471Z,22.10
2022-12-05T18:19:26.953Z,17.97
2022-12-05T18:21:54.712Z,24.03
2022-12-05T18:24:22.436Z,19.43
2022-12-05T18:26:50.045Z,20.70
2022-12-05T18:29:17.768Z,19.67
2022-12-05T18:31:45.525Z,20.20
2022-12-05T18:34:13.358Z,23.07
2022-12-05T18:36:42.454Z,14.63
2022-12-05T18:39:12.577Z,21.90
2022-12-05T18:41:40.212Z,16.47
2022-12-05T18:44:08.658Z,18.40
2022-12-05T18:46:37.994Z,22.60
2022-12-05T18:49:05.810Z,19.43
2022-12-05T18:51:33.590Z,18.67
2022-12-05T18:54:02.640Z,15.40
2022-12-05T18:56:40.015Z,20.63
2022-12-05T18:59:09.504Z,18.60
2022-12-05T19:01:38.856Z,15.50
2022-12-05T19:04:08.747Z,15.50
2022-12-05T19:06:40.120Z,16.53
2022-12-05T19:09:12.732Z,15.60
2022-12-05T19:11:47.017Z,14.80
2022-12-05T19:14:15.822Z,15.30
2022-12-05T19:16:43.574Z,12.33
2022-12-05T19:19:12.064Z,10.57
2022-12-05T19:21:39.661Z,10.93
2022-12-05T19:24:16.746Z,12.63
2022-12-05T19:26:46.496Z,10.97
2022-12-05T19:29:19.493Z,9.30
2022-12-05T19:31:49.697Z,14.03
2022-12-05T19:34:24.472Z,11.93
2022-12-05T19:36:53.777Z,7.93
2022-12-05T19:39:26.788Z,9.47
2022-12-05T19:41:57.885Z,7.20
2022-12-05T19:44:26.907Z,10.63
2022-12-05T19:46:55.050Z,9.90
2022-12-05T19:49:23.454Z,11.13
2022-12-05T19:51:52.623Z,8.10
2022-12-05T19:54:26.838Z,8.90
2022-12-05T19:57:00.827Z,8.63
2022-12-05T19:59:29.680Z,7.50
2022-12-05T20:02:01.114Z,8.10
2022-12-05T20:04:29.013Z,7.37
2022-12-05T20:06:58.875Z,6.13
2022-12-05T20:09:30.624Z,8.17
2022-12-05T20:12:03.961Z,8.47
2022-12-05T20:14:33.812Z,8.77
2022-12-05T20:17:13.601Z,7.20
2022-12-05T20:19:45.641Z,6.70
2022-12-05T20:22:13.403Z,8.43
2022-12-05T20:24:42.749Z,10.50
2022-12-05T20:27:11.938Z,9.47
2022-12-05T20:30:00.131Z,8.77
2022-12-05T20:32:28.255Z,6.70
2022-12-05T20:34:59.586Z,8.80
2022-12-05T20:37:29.926Z,8.37
2022-12-05T20:40:15.767Z,8.00
2022-12-05T20:42:46.757Z,6.00
2022-12-05T20:45:14.619Z,7.70
2022-12-05T20:47:42.307Z,8.50
2022-12-05T20:50:12.196Z,8.10
2022-12-05T20:52:46.609Z,8.17
2022-12-05T20:55:20.281Z,7.93
2022-12-05T20:57:49.268Z,7.53
2022-12-05T21:00:17.265Z,10.73
2022-12-05T21:02:46.421Z,6.90
2022-12-05T21:05:40.563Z,6.90
2022-12-05T21:08:08.379Z,6.17
2022-12-05T21:10:37.414Z,7.00
2022-12-05T21:13:07.676Z,6.77
2022-12-05T21:15:58.179Z,11.80
2022-12-05T21:18:25.869Z,9.37
2022-12-05T21:20:57.668Z,8.10
2022-12-05T21:23:25.393Z,5.70
2022-12-05T21:25:57.102Z,9.37
2022-12-05T21:28:24.965Z,5.87
2022-12-05T21:31:03.145Z,6.60
2022-12-05T21:33:30.998Z,8.20
2022-12-05T21:35:58.743Z,6.30
2022-12-05T21:38:28.701Z,6.70
2022-12-05T21:40:59.426Z,7.30
2022-12-05T21:43:28.489Z,6.40
2022-12-05T21:45:59.307Z,9.33
2022-12-05T21:48:30.029Z,7.90
2022-12-05T21:50:59.143Z,7.90
2022-12-05T21:53:30.421Z,6.27
2022-12-05T21:56:04.222Z,7.37
2022-12-05T21:58:36.848Z,7.53
2022-12-05T22:01:31.007Z,6.70
2022-12-05T22:04:05.414Z,6.73
2022-12-05T22:06:35.514Z,7.90
2022-12-05T22:09:03.266Z,6.80
2022-12-05T22:11:34.750Z,6.93
2022-12-05T22:14:06.993Z,7.07
2022-12-05T22:16:36.431Z,8.80
2022-12-05T22:19:04.446Z,8.43
2022-12-05T22:21:33.842Z,6.97
2022-12-05T22:24:01.884Z,7.57
2022-12-05T22:26:35.465Z,8.27
2022-12-05T22:29:06.506Z,7.70
2022-12-05T22:31:38.232Z,7.60
2022-12-05T22:34:11.890Z,7.83
2022-12-05T22:36:43.868Z,15.53
2022-12-05T22:39:15.130Z,8.65
2022-12-05T22:41:42.981Z,8.10
2022-12-05T22:44:12.149Z,10.47
2022-12-05T22:46:42.254Z,8.57
2022-12-05T22:49:12.544Z,10.50
2022-12-05T22:51:40.215Z,10.73
2022-12-05T22:54:08.646Z,8.93
2022-12-05T22:56:36.252Z,6.90
2022-12-05T22:59:04.068Z,8.80
2022-12-05T23:01:34.224Z,8.97
2022-12-05T23:04:03.487Z,8.60
2022-12-05T23:06:33.964Z,11.23
2022-12-05T23:09:02.046Z,8.70
2022-12-05T23:11:30.752Z,8.97
2022-12-05T23:14:02.165Z,8.10
2022-12-05T23:16:34.633Z,11.87
2022-12-05T23:19:04.008Z,8.80
2022-12-05T23:21:33.500Z,8.53
2022-12-05T23:24:04.777Z,9.37
2022-12-05T23:26:34.832Z,9.43
2022-12-05T23:29:15.173Z,10.00
2022-12-05T23:31:44.691Z,9.50
2022-12-05T23:34:14.509Z,8.10
2022-12-05T23:36:43.921Z,12.17
2022-12-05T23:39:11.750Z,9.70
2022-12-05T23:41:41.756Z,9.83
2022-12-05T23:44:12.012Z,9.77
2022-12-05T23:46:41.016Z,10.53
2022-12-05T23:49:10.465Z,9.00
2022-12-05T23:51:40.085Z,9.57
2022-12-05T23:54:10.656Z,9.77
2022-12-05T23:56:42.562Z,7.10
2022-12-05T23:59:10.750Z,10.20
